sensor_id;sensor_type;location;lat;lon;timestamp;temperature;humidity
26081;DHT22;13991;51.174;4.438;2023-07-02T00:01:43;18.70;99.90
26081;DHT22;13991;51.174;4.438;2023-07-02T00:04:08;18.70;99.90
26081;DHT22;13991;51.174;4.438;2023-07-02T00:06:34;18.50;99.90
26081;DHT22;13991;51.174;4.438;2023-07-02T00:09:06;18.50;99.90
26081;DHT22;13991;51.174;4.438;2023-07-02T00:11:31;18.50;99.90
26081;DHT22;13991;51.174;4.438;2023-07-02T00:13:57;18.50;99.90
26081;DHT22;13991;51.174;4.438;2023-07-02T00:16:23;18.60;99.90
26081;DHT22;13991;51.174;4.438;2023-07-02T00:18:48;18.50;99.90
26081;DHT22;13991;51.174;4.438;2023-07-02T00:21:18;18.50;99.90
26081;DHT22;13991;51.174;4.438;2023-07-02T00:23:44;18.40;99.90
26081;DHT22;13991;51.174;4.438;2023-07-02T00:26:10;18.60;99.90
26081;DHT22;13991;51.174;4.438;2023-07-02T00:28:36;18.50;99.90
26081;DHT22;13991;51.174;4.438;2023-07-02T00:31:02;18.40;99.90
26081;DHT22;13991;51.174;4.438;2023-07-02T00:33:31;18.30;99.90
26081;DHT22;13991;51.174;4.438;2023-07-02T00:35:57;18.30;99.90
26081;DHT22;13991;51.174;4.438;2023-07-02T00:38:23;18.40;99.90
26081;DHT22;13991;51.174;4.438;2023-07-02T00:40:49;18.40;99.90
26081;DHT22;13991;51.174;4.438;2023-07-02T00:43:15;18.30;99.90
26081;DHT22;13991;51.174;4.438;2023-07-02T00:45:40;18.30;99.90
26081;DHT22;13991;51.174;4.438;2023-07-02T00:48:07;18.30;99.90
26081;DHT22;13991;51.174;4.438;2023-07-02T00:50:33;18.30;99.90
26081;DHT22;13991;51.174;4.438;2023-07-02T00:52:59;18.20;99.90
26081;DHT22;13991;51.174;4.438;2023-07-02T00:55:25;18.20;99.90
26081;DHT22;13991;51.174;4.438;2023-07-02T00:57:54;18.20;99.90
26081;DHT22;13991;51.174;4.438;2023-07-02T01:00:22;18.00;99.90
26081;DHT22;13991;51.174;4.438;2023-07-02T01:02:55;17.90;99.90
26081;DHT22;13991;51.174;4.438;2023-07-02T01:05:28;18.00;99.90
26081;DHT22;13991;51.174;4.438;2023-07-02T01:08:04;18.00;99.90
26081;DHT22;13991;51.174;4.438;2023-07-02T01:10:31;18.00;99.90
26081;DHT22;13991;51.174;4.438;2023-07-02T01:13:06;18.10;99.90
26081;DHT22;13991;51.174;4.438;2023-07-02T01:15:33;18.10;99.90
26081;DHT22;13991;51.174;4.438;2023-07-02T01:18:05;18.10;99.90
26081;DHT22;13991;51.174;4.438;2023-07-02T01:20:35;18.10;99.90
26081;DHT22;13991;51.174;4.438;2023-07-02T01:23:08;18.10;99.90
26081;DHT22;13991;51.174;4.438;2023-07-02T01:25:38;18.10;99.90
26081;DHT22;13991;51.174;4.438;2023-07-02T01:28:04;18.10;99.90
26081;DHT22;13991;51.174;4.438;2023-07-02T01:30:32;18.20;99.90
26081;DHT22;13991;51.174;4.438;2023-07-02T01:32:57;18.20;99.90
26081;DHT22;13991;51.174;4.438;2023-07-02T01:35:26;18.30;99.90
26081;DHT22;13991;51.174;4.438;2023-07-02T01:37:52;18.20;99.90
26081;DHT22;13991;51.174;4.438;2023-07-02T01:40:18;18.20;99.90
26081;DHT22;13991;51.174;4.438;2023-07-02T01:42:43;18.20;99.90
26081;DHT22;13991;51.174;4.438;2023-07-02T01:45:09;18.00;99.90
26081;DHT22;13991;51.174;4.438;2023-07-02T01:47:35;18.00;99.90
26081;DHT22;13991;51.174;4.438;2023-07-02T01:50:03;18.10;99.90
26081;DHT22;13991;51.174;4.438;2023-07-02T01:52:29;18.00;99.90
26081;DHT22;13991;51.174;4.438;2023-07-02T01:54:59;17.90;99.90
26081;DHT22;13991;51.174;4.438;2023-07-02T01:57:24;17.90;99.90
26081;DHT22;13991;51.174;4.438;2023-07-02T01:59:50;17.90;99.90
26081;DHT22;13991;51.174;4.438;2023-07-02T02:02:16;18.00;99.90
26081;DHT22;13991;51.174;4.438;2023-07-02T02:04:41;18.10;99.90
26081;DHT22;13991;51.174;4.438;2023-07-02T02:07:07;18.10;99.90
26081;DHT22;13991;51.174;4.438;2023-07-02T02:09:33;18.00;99.90
26081;DHT22;13991;51.174;4.438;2023-07-02T02:11:58;18.00;99.90
26081;DHT22;13991;51.174;4.438;2023-07-02T02:14:24;18.00;99.90
26081;DHT22;13991;51.174;4.438;2023-07-02T02:16:55;18.00;99.90
26081;DHT22;13991;51.174;4.438;2023-07-02T02:19:21;17.90;99.90
26081;DHT22;13991;51.174;4.438;2023-07-02T02:21:47;18.00;99.90
26081;DHT22;13991;51.174;4.438;2023-07-02T02:24:14;17.80;99.90
26081;DHT22;13991;51.174;4.438;2023-07-02T02:26:40;17.90;99.90
26081;DHT22;13991;51.174;4.438;2023-07-02T02:29:06;17.80;99.90
26081;DHT22;13991;51.174;4.438;2023-07-02T02:31:31;17.70;99.90
26081;DHT22;13991;51.174;4.438;2023-07-02T02:33:57;17.70;99.90
26081;DHT22;13991;51.174;4.438;2023-07-02T02:36:23;17.50;99.90
26081;DHT22;13991;51.174;4.438;2023-07-02T02:38:49;17.50;99.90
26081;DHT22;13991;51.174;4.438;2023-07-02T02:41:14;17.70;99.90
26081;DHT22;13991;51.174;4.438;2023-07-02T02:43:43;17.80;99.90
26081;DHT22;13991;51.174;4.438;2023-07-02T02:46:18;17.90;99.90
26081;DHT22;13991;51.174;4.438;2023-07-02T02:48:44;17.80;99.90
26081;DHT22;13991;51.174;4.438;2023-07-02T02:51:10;17.80;99.90
26081;DHT22;13991;51.174;4.438;2023-07-02T02:53:35;17.70;99.90
26081;DHT22;13991;51.174;4.438;2023-07-02T02:56:01;17.70;99.90
26081;DHT22;13991;51.174;4.438;2023-07-02T02:58:27;17.70;99.90
26081;DHT22;13991;51.174;4.438;2023-07-02T03:00:53;17.70;99.90
26081;DHT22;13991;51.174;4.438;2023-07-02T03:03:19;17.70;99.90
26081;DHT22;13991;51.174;4.438;2023-07-02T03:05:45;17.90;99.90
26081;DHT22;13991;51.174;4.438;2023-07-02T03:08:14;17.90;99.90
26081;DHT22;13991;51.174;4.438;2023-07-02T03:10:40;17.90;99.90
26081;DHT22;13991;51.174;4.438;2023-07-02T03:13:05;18.00;99.90
26081;DHT22;13991;51.174;4.438;2023-07-02T03:15:31;17.90;99.90
26081;DHT22;13991;51.174;4.438;2023-07-02T03:17:56;17.90;99.90
26081;DHT22;13991;51.174;4.438;2023-07-02T03:20:22;17.90;99.90
26081;DHT22;13991;51.174;4.438;2023-07-02T03:22:48;17.90;99.90
26081;DHT22;13991;51.174;4.438;2023-07-02T03:25:14;18.00;99.90
26081;DHT22;13991;51.174;4.438;2023-07-02T03:27:39;17.90;99.90
26081;DHT22;13991;51.174;4.438;2023-07-02T03:30:05;17.90;99.90
26081;DHT22;13991;51.174;4.438;2023-07-02T03:32:31;17.90;99.90
26081;DHT22;13991;51.174;4.438;2023-07-02T03:34:57;18.00;99.90
26081;DHT22;13991;51.174;4.438;2023-07-02T03:37:22;17.90;99.90
26081;DHT22;13991;51.174;4.438;2023-07-02T03:39:48;17.90;99.90
26081;DHT22;13991;51.174;4.438;2023-07-02T03:42:14;17.80;99.90
26081;DHT22;13991;51.174;4.438;2023-07-02T03:44:39;17.80;99.90
26081;DHT22;13991;51.174;4.438;2023-07-02T03:47:06;17.80;99.90
26081;DHT22;13991;51.174;4.438;2023-07-02T03:49:33;17.80;99.90
26081;DHT22;13991;51.174;4.438;2023-07-02T03:51:59;17.70;99.90
26081;DHT22;13991;51.174;4.438;2023-07-02T03:54:25;17.80;99.90
26081;DHT22;13991;51.174;4.438;2023-07-02T03:56:50;17.80;99.90
26081;DHT22;13991;51.174;4.438;2023-07-02T03:59:16;17.90;99.90
26081;DHT22;13991;51.174;4.438;2023-07-02T04:01:42;18.10;99.90
26081;DHT22;13991;51.174;4.438;2023-07-02T04:04:09;18.10;99.90
26081;DHT22;13991;51.174;4.438;2023-07-02T04:06:34;18.20;99.90
26081;DHT22;13991;51.174;4.438;2023-07-02T04:09:00;18.20;99.90
26081;DHT22;13991;51.174;4.438;2023-07-02T04:11:26;18.30;99.90
26081;DHT22;13991;51.174;4.438;2023-07-02T04:13:51;18.30;99.90
26081;DHT22;13991;51.174;4.438;2023-07-02T04:16:17;18.20;99.90
26081;DHT22;13991;51.174;4.438;2023-07-02T04:18:43;18.10;99.90
26081;DHT22;13991;51.174;4.438;2023-07-02T04:21:08;18.10;99.90
26081;DHT22;13991;51.174;4.438;2023-07-02T04:23:34;18.10;99.90
26081;DHT22;13991;51.174;4.438;2023-07-02T04:26:00;18.20;99.90
26081;DHT22;13991;51.174;4.438;2023-07-02T04:28:25;18.30;99.90
26081;DHT22;13991;51.174;4.438;2023-07-02T04:30:51;18.30;99.90
26081;DHT22;13991;51.174;4.438;2023-07-02T04:33:17;18.40;99.90
26081;DHT22;13991;51.174;4.438;2023-07-02T04:35:43;18.40;99.90
26081;DHT22;13991;51.174;4.438;2023-07-02T04:38:08;18.50;99.90
26081;DHT22;13991;51.174;4.438;2023-07-02T04:40:34;18.50;99.90
26081;DHT22;13991;51.174;4.438;2023-07-02T04:43:00;18.50;99.90
26081;DHT22;13991;51.174;4.438;2023-07-02T04:45:26;18.40;99.90
26081;DHT22;13991;51.174;4.438;2023-07-02T04:47:57;18.40;99.90
26081;DHT22;13991;51.174;4.438;2023-07-02T04:50:23;18.40;99.90
26081;DHT22;13991;51.174;4.438;2023-07-02T04:52:49;18.30;99.90
26081;DHT22;13991;51.174;4.438;2023-07-02T04:55:14;18.40;99.90
26081;DHT22;13991;51.174;4.438;2023-07-02T04:57:40;18.30;99.90
26081;DHT22;13991;51.174;4.438;2023-07-02T05:00:06;18.10;99.90
26081;DHT22;13991;51.174;4.438;2023-07-02T05:02:33;18.30;99.90
26081;DHT22;13991;51.174;4.438;2023-07-02T05:04:59;18.40;99.90
26081;DHT22;13991;51.174;4.438;2023-07-02T05:07:25;18.50;99.90
26081;DHT22;13991;51.174;4.438;2023-07-02T05:09:51;18.10;99.90
26081;DHT22;13991;51.174;4.438;2023-07-02T05:12:18;18.40;99.90
26081;DHT22;13991;51.174;4.438;2023-07-02T05:14:44;18.30;99.90
26081;DHT22;13991;51.174;4.438;2023-07-02T05:17:10;18.30;99.90
26081;DHT22;13991;51.174;4.438;2023-07-02T05:19:36;18.50;99.90
26081;DHT22;13991;51.174;4.438;2023-07-02T05:22:02;18.50;99.90
26081;DHT22;13991;51.174;4.438;2023-07-02T05:24:28;18.60;99.90
26081;DHT22;13991;51.174;4.438;2023-07-02T05:26:53;18.70;99.90
26081;DHT22;13991;51.174;4.438;2023-07-02T05:29:19;18.80;99.90
26081;DHT22;13991;51.174;4.438;2023-07-02T05:31:45;18.80;99.90
26081;DHT22;13991;51.174;4.438;2023-07-02T05:34:13;18.90;99.90
26081;DHT22;13991;51.174;4.438;2023-07-02T05:36:41;18.90;99.90
26081;DHT22;13991;51.174;4.438;2023-07-02T05:39:06;18.80;99.90
26081;DHT22;13991;51.174;4.438;2023-07-02T05:41:32;18.60;99.90
26081;DHT22;13991;51.174;4.438;2023-07-02T05:43:58;18.40;99.90
26081;DHT22;13991;51.174;4.438;2023-07-02T05:46:24;18.50;99.90
26081;DHT22;13991;51.174;4.438;2023-07-02T05:48:50;18.40;99.90
26081;DHT22;13991;51.174;4.438;2023-07-02T05:51:25;18.40;99.90
26081;DHT22;13991;51.174;4.438;2023-07-02T05:53:51;18.60;99.90
26081;DHT22;13991;51.174;4.438;2023-07-02T05:56:18;18.70;99.90
26081;DHT22;13991;51.174;4.438;2023-07-02T05:58:44;18.80;99.90
26081;DHT22;13991;51.174;4.438;2023-07-02T06:01:10;18.90;99.90
26081;DHT22;13991;51.174;4.438;2023-07-02T06:03:36;18.90;99.90
26081;DHT22;13991;51.174;4.438;2023-07-02T06:06:03;19.00;99.90
26081;DHT22;13991;51.174;4.438;2023-07-02T06:08:28;18.90;99.90
26081;DHT22;13991;51.174;4.438;2023-07-02T06:10:54;18.80;99.90
26081;DHT22;13991;51.174;4.438;2023-07-02T06:13:20;18.70;99.90
26081;DHT22;13991;51.174;4.438;2023-07-02T06:15:46;18.50;99.90
26081;DHT22;13991;51.174;4.438;2023-07-02T06:18:13;18.50;99.90
26081;DHT22;13991;51.174;4.438;2023-07-02T06:20:38;18.30;99.90
26081;DHT22;13991;51.174;4.438;2023-07-02T06:23:04;18.20;99.90
26081;DHT22;13991;51.174;4.438;2023-07-02T06:25:30;18.20;99.90
26081;DHT22;13991;51.174;4.438;2023-07-02T06:27:56;18.00;99.90
26081;DHT22;13991;51.174;4.438;2023-07-02T06:30:24;17.80;99.90
26081;DHT22;13991;51.174;4.438;2023-07-02T06:32:50;17.90;99.90
26081;DHT22;13991;51.174;4.438;2023-07-02T06:35:17;17.90;99.90
26081;DHT22;13991;51.174;4.438;2023-07-02T06:37:43;18.00;99.90
26081;DHT22;13991;51.174;4.438;2023-07-02T06:40:10;18.00;99.90
26081;DHT22;13991;51.174;4.438;2023-07-02T06:42:36;17.90;99.90
26081;DHT22;13991;51.174;4.438;2023-07-02T06:45:02;17.80;99.90
26081;DHT22;13991;51.174;4.438;2023-07-02T06:47:28;17.80;99.90
26081;DHT22;13991;51.174;4.438;2023-07-02T06:49:54;17.90;99.90
26081;DHT22;13991;51.174;4.438;2023-07-02T06:52:20;18.00;99.90
26081;DHT22;13991;51.174;4.438;2023-07-02T06:54:45;18.00;99.90
26081;DHT22;13991;51.174;4.438;2023-07-02T06:57:13;18.00;99.90
26081;DHT22;13991;51.174;4.438;2023-07-02T06:59:39;18.00;99.90
26081;DHT22;13991;51.174;4.438;2023-07-02T07:02:04;18.00;99.90
26081;DHT22;13991;51.174;4.438;2023-07-02T07:04:30;18.10;99.90
26081;DHT22;13991;51.174;4.438;2023-07-02T07:06:56;18.10;99.90
26081;DHT22;13991;51.174;4.438;2023-07-02T07:09:22;18.30;99.90
26081;DHT22;13991;51.174;4.438;2023-07-02T07:11:51;18.30;99.90
26081;DHT22;13991;51.174;4.438;2023-07-02T07:14:19;18.30;99.90
26081;DHT22;13991;51.174;4.438;2023-07-02T07:16:48;18.30;99.90
26081;DHT22;13991;51.174;4.438;2023-07-02T07:19:14;18.30;99.90
26081;DHT22;13991;51.174;4.438;2023-07-02T07:21:40;18.50;99.90
26081;DHT22;13991;51.174;4.438;2023-07-02T07:24:06;18.40;99.90
26081;DHT22;13991;51.174;4.438;2023-07-02T07:26:32;18.40;99.90
26081;DHT22;13991;51.174;4.438;2023-07-02T07:28:58;18.50;99.90
26081;DHT22;13991;51.174;4.438;2023-07-02T07:31:24;18.40;99.90
26081;DHT22;13991;51.174;4.438;2023-07-02T07:33:50;18.30;99.90
26081;DHT22;13991;51.174;4.438;2023-07-02T07:36:16;18.40;99.90
26081;DHT22;13991;51.174;4.438;2023-07-02T07:38:43;18.50;99.90
26081;DHT22;13991;51.174;4.438;2023-07-02T07:41:10;18.30;99.90
26081;DHT22;13991;51.174;4.438;2023-07-02T07:43:35;18.30;99.90
26081;DHT22;13991;51.174;4.438;2023-07-02T07:46:01;18.40;99.90
26081;DHT22;13991;51.174;4.438;2023-07-02T07:48:27;18.50;99.90
26081;DHT22;13991;51.174;4.438;2023-07-02T07:50:53;18.60;99.90
26081;DHT22;13991;51.174;4.438;2023-07-02T07:53:19;18.80;99.90
26081;DHT22;13991;51.174;4.438;2023-07-02T07:55:45;18.80;99.90
26081;DHT22;13991;51.174;4.438;2023-07-02T07:58:11;18.80;99.90
26081;DHT22;13991;51.174;4.438;2023-07-02T08:00:36;18.80;99.90
26081;DHT22;13991;51.174;4.438;2023-07-02T08:03:03;18.80;99.90
26081;DHT22;13991;51.174;4.438;2023-07-02T08:05:30;18.90;99.90
26081;DHT22;13991;51.174;4.438;2023-07-02T08:07:55;19.00;99.90
26081;DHT22;13991;51.174;4.438;2023-07-02T08:10:21;19.00;99.90
26081;DHT22;13991;51.174;4.438;2023-07-02T08:12:47;19.30;99.90
26081;DHT22;13991;51.174;4.438;2023-07-02T08:15:13;19.50;99.90
26081;DHT22;13991;51.174;4.438;2023-07-02T08:17:39;19.60;99.90
26081;DHT22;13991;51.174;4.438;2023-07-02T08:20:05;19.70;99.90
26081;DHT22;13991;51.174;4.438;2023-07-02T08:22:38;19.70;99.90
26081;DHT22;13991;51.174;4.438;2023-07-02T08:25:05;19.50;99.90
26081;DHT22;13991;51.174;4.438;2023-07-02T08:27:31;19.50;99.90
26081;DHT22;13991;51.174;4.438;2023-07-02T08:29:57;19.60;99.90
26081;DHT22;13991;51.174;4.438;2023-07-02T08:32:22;19.50;99.90
26081;DHT22;13991;51.174;4.438;2023-07-02T08:34:48;19.20;99.90
26081;DHT22;13991;51.174;4.438;2023-07-02T08:37:16;19.20;99.90
26081;DHT22;13991;51.174;4.438;2023-07-02T08:39:42;18.90;99.90
26081;DHT22;13991;51.174;4.438;2023-07-02T08:42:08;19.10;99.90
26081;DHT22;13991;51.174;4.438;2023-07-02T08:44:34;19.00;99.90
26081;DHT22;13991;51.174;4.438;2023-07-02T08:47:03;19.10;99.90
26081;DHT22;13991;51.174;4.438;2023-07-02T08:49:31;19.20;99.90
26081;DHT22;13991;51.174;4.438;2023-07-02T08:51:57;19.20;99.90
26081;DHT22;13991;51.174;4.438;2023-07-02T08:54:23;19.10;99.90
26081;DHT22;13991;51.174;4.438;2023-07-02T08:56:49;19.20;99.90
26081;DHT22;13991;51.174;4.438;2023-07-02T08:59:15;19.50;99.90
26081;DHT22;13991;51.174;4.438;2023-07-02T09:01:53;19.70;99.90
26081;DHT22;13991;51.174;4.438;2023-07-02T09:04:23;19.80;99.90
26081;DHT22;13991;51.174;4.438;2023-07-02T09:07:06;19.60;99.90
26081;DHT22;13991;51.174;4.438;2023-07-02T09:09:32;19.70;99.90
26081;DHT22;13991;51.174;4.438;2023-07-02T09:11:58;19.90;99.90
26081;DHT22;13991;51.174;4.438;2023-07-02T09:14:29;20.20;99.90
26081;DHT22;13991;51.174;4.438;2023-07-02T09:17:08;20.30;99.90
26081;DHT22;13991;51.174;4.438;2023-07-02T09:19:35;20.30;99.90
26081;DHT22;13991;51.174;4.438;2023-07-02T09:22:02;20.30;99.90
26081;DHT22;13991;51.174;4.438;2023-07-02T09:24:31;20.60;99.90
26081;DHT22;13991;51.174;4.438;2023-07-02T09:27:01;20.50;99.90
26081;DHT22;13991;51.174;4.438;2023-07-02T09:29:31;20.50;99.90
26081;DHT22;13991;51.174;4.438;2023-07-02T09:32:01;20.30;99.90
26081;DHT22;13991;51.174;4.438;2023-07-02T09:34:31;20.20;99.90
26081;DHT22;13991;51.174;4.438;2023-07-02T09:37:00;20.00;99.90
26081;DHT22;13991;51.174;4.438;2023-07-02T09:39:31;20.10;99.90
26081;DHT22;13991;51.174;4.438;2023-07-02T09:41:58;20.00;99.90
26081;DHT22;13991;51.174;4.438;2023-07-02T09:44:32;20.00;99.90
26081;DHT22;13991;51.174;4.438;2023-07-02T09:47:00;20.10;99.90
26081;DHT22;13991;51.174;4.438;2023-07-02T09:49:27;20.00;99.90
26081;DHT22;13991;51.174;4.438;2023-07-02T09:51:56;19.90;99.90
26081;DHT22;13991;51.174;4.438;2023-07-02T09:54:23;20.00;99.90
26081;DHT22;13991;51.174;4.438;2023-07-02T09:56:49;20.00;99.90
26081;DHT22;13991;51.174;4.438;2023-07-02T09:59:15;19.80;99.90
26081;DHT22;13991;51.174;4.438;2023-07-02T10:01:40;19.70;99.90
26081;DHT22;13991;51.174;4.438;2023-07-02T10:04:14;19.70;99.90
26081;DHT22;13991;51.174;4.438;2023-07-02T10:06:54;19.70;99.90
26081;DHT22;13991;51.174;4.438;2023-07-02T10:09:43;19.60;99.90
26081;DHT22;13991;51.174;4.438;2023-07-02T10:14:46;19.50;99.90
26081;DHT22;13991;51.174;4.438;2023-07-02T10:17:28;19.40;99.90
26081;DHT22;13991;51.174;4.438;2023-07-02T10:19:55;19.60;99.90
26081;DHT22;13991;51.174;4.438;2023-07-02T10:22:22;19.50;99.90
26081;DHT22;13991;51.174;4.438;2023-07-02T10:24:52;19.60;99.90
26081;DHT22;13991;51.174;4.438;2023-07-02T10:27:18;19.60;99.90
26081;DHT22;13991;51.174;4.438;2023-07-02T10:29:50;19.80;99.90
26081;DHT22;13991;51.174;4.438;2023-07-02T10:32:28;19.90;99.90
26081;DHT22;13991;51.174;4.438;2023-07-02T10:34:54;19.90;99.90
26081;DHT22;13991;51.174;4.438;2023-07-02T10:37:20;19.80;99.90
26081;DHT22;13991;51.174;4.438;2023-07-02T10:39:46;19.70;99.90
26081;DHT22;13991;51.174;4.438;2023-07-02T10:42:12;19.40;99.90
26081;DHT22;13991;51.174;4.438;2023-07-02T10:44:49;19.40;99.90
26081;DHT22;13991;51.174;4.438;2023-07-02T10:47:17;19.50;99.90
26081;DHT22;13991;51.174;4.438;2023-07-02T10:49:42;19.60;99.90
26081;DHT22;13991;51.174;4.438;2023-07-02T10:52:08;19.70;99.90
26081;DHT22;13991;51.174;4.438;2023-07-02T10:54:44;19.70;99.90
26081;DHT22;13991;51.174;4.438;2023-07-02T10:57:13;19.70;99.90
26081;DHT22;13991;51.174;4.438;2023-07-02T10:59:40;19.80;99.90
26081;DHT22;13991;51.174;4.438;2023-07-02T11:02:06;19.80;99.90
26081;DHT22;13991;51.174;4.438;2023-07-02T11:04:32;19.80;99.90
26081;DHT22;13991;51.174;4.438;2023-07-02T11:06:59;20.00;99.90
26081;DHT22;13991;51.174;4.438;2023-07-02T11:09:25;20.20;99.90
26081;DHT22;13991;51.174;4.438;2023-07-02T11:11:56;20.20;99.90
26081;DHT22;13991;51.174;4.438;2023-07-02T11:14:32;20.00;99.90
26081;DHT22;13991;51.174;4.438;2023-07-02T11:17:01;19.80;99.90
26081;DHT22;13991;51.174;4.438;2023-07-02T11:19:29;19.80;99.90
26081;DHT22;13991;51.174;4.438;2023-07-02T11:21:56;20.00;99.90
26081;DHT22;13991;51.174;4.438;2023-07-02T11:24:34;20.30;99.90
26081;DHT22;13991;51.174;4.438;2023-07-02T11:27:01;20.60;99.90
26081;DHT22;13991;51.174;4.438;2023-07-02T11:29:34;20.70;99.90
26081;DHT22;13991;51.174;4.438;2023-07-02T11:32:09;20.70;99.00
26081;DHT22;13991;51.174;4.438;2023-07-02T11:34:35;20.90;99.50
26081;DHT22;13991;51.174;4.438;2023-07-02T11:37:01;21.10;99.40
26081;DHT22;13991;51.174;4.438;2023-07-02T11:39:29;21.10;98.70
26081;DHT22;13991;51.174;4.438;2023-07-02T11:41:55;21.10;97.90
26081;DHT22;13991;51.174;4.438;2023-07-02T11:44:21;21.00;99.00
26081;DHT22;13991;51.174;4.438;2023-07-02T11:46:47;21.00;99.50
26081;DHT22;13991;51.174;4.438;2023-07-02T11:49:13;20.80;99.30
26081;DHT22;13991;51.174;4.438;2023-07-02T11:51:40;20.80;99.00
26081;DHT22;13991;51.174;4.438;2023-07-02T11:54:07;21.10;99.40
26081;DHT22;13991;51.174;4.438;2023-07-02T11:56:33;21.20;97.70
26081;DHT22;13991;51.174;4.438;2023-07-02T11:58:59;21.40;98.70
26081;DHT22;13991;51.174;4.438;2023-07-02T12:01:25;21.60;98.30
26081;DHT22;13991;51.174;4.438;2023-07-02T12:03:51;21.70;97.50
26081;DHT22;13991;51.174;4.438;2023-07-02T12:06:17;21.60;96.60
26081;DHT22;13991;51.174;4.438;2023-07-02T12:08:43;21.50;97.40
26081;DHT22;13991;51.174;4.438;2023-07-02T12:11:08;21.80;97.40
26081;DHT22;13991;51.174;4.438;2023-07-02T12:13:34;22.20;99.00
26081;DHT22;13991;51.174;4.438;2023-07-02T12:16:00;22.30;97.40
26081;DHT22;13991;51.174;4.438;2023-07-02T12:18:26;22.50;96.70
26081;DHT22;13991;51.174;4.438;2023-07-02T12:20:52;22.60;96.50
26081;DHT22;13991;51.174;4.438;2023-07-02T12:23:18;22.70;95.90
26081;DHT22;13991;51.174;4.438;2023-07-02T12:25:43;22.40;96.30
26081;DHT22;13991;51.174;4.438;2023-07-02T12:28:09;22.70;97.90
26081;DHT22;13991;51.174;4.438;2023-07-02T12:30:35;22.40;95.20
26081;DHT22;13991;51.174;4.438;2023-07-02T12:33:00;21.60;96.00
26081;DHT22;13991;51.174;4.438;2023-07-02T12:35:26;21.30;96.20
26081;DHT22;13991;51.174;4.438;2023-07-02T12:37:53;21.20;97.10
26081;DHT22;13991;51.174;4.438;2023-07-02T12:40:19;21.00;97.60
26081;DHT22;13991;51.174;4.438;2023-07-02T12:42:46;21.40;98.90
26081;DHT22;13991;51.174;4.438;2023-07-02T12:45:13;21.50;97.70
26081;DHT22;13991;51.174;4.438;2023-07-02T12:47:40;21.60;97.40
26081;DHT22;13991;51.174;4.438;2023-07-02T12:50:13;21.60;96.20
26081;DHT22;13991;51.174;4.438;2023-07-02T12:52:39;21.50;95.40
26081;DHT22;13991;51.174;4.438;2023-07-02T12:55:05;21.40;95.70
26081;DHT22;13991;51.174;4.438;2023-07-02T12:57:31;21.10;96.00
26081;DHT22;13991;51.174;4.438;2023-07-02T12:59:56;21.30;96.10
26081;DHT22;13991;51.174;4.438;2023-07-02T13:02:23;21.50;97.50
26081;DHT22;13991;51.174;4.438;2023-07-02T13:04:49;21.80;96.20
26081;DHT22;13991;51.174;4.438;2023-07-02T13:07:16;22.10;96.00
26081;DHT22;13991;51.174;4.438;2023-07-02T13:09:42;22.00;95.30
26081;DHT22;13991;51.174;4.438;2023-07-02T13:12:11;21.80;95.30
26081;DHT22;13991;51.174;4.438;2023-07-02T13:14:37;21.90;97.20
26081;DHT22;13991;51.174;4.438;2023-07-02T13:17:03;22.00;95.90
26081;DHT22;13991;51.174;4.438;2023-07-02T13:19:31;22.30;95.80
26081;DHT22;13991;51.174;4.438;2023-07-02T13:21:56;22.50;94.80
26081;DHT22;13991;51.174;4.438;2023-07-02T13:24:22;22.70;94.30
26081;DHT22;13991;51.174;4.438;2023-07-02T13:26:48;22.50;94.90
26081;DHT22;13991;51.174;4.438;2023-07-02T13:29:14;22.40;94.70
26081;DHT22;13991;51.174;4.438;2023-07-02T13:31:40;22.30;94.60
26081;DHT22;13991;51.174;4.438;2023-07-02T13:34:06;22.20;94.70
26081;DHT22;13991;51.174;4.438;2023-07-02T13:36:31;22.10;95.10
26081;DHT22;13991;51.174;4.438;2023-07-02T13:38:58;22.10;95.50
26081;DHT22;13991;51.174;4.438;2023-07-02T13:41:24;22.40;96.10
26081;DHT22;13991;51.174;4.438;2023-07-02T13:43:49;22.50;95.10
26081;DHT22;13991;51.174;4.438;2023-07-02T13:46:15;22.20;94.40
26081;DHT22;13991;51.174;4.438;2023-07-02T13:48:41;22.00;94.80
26081;DHT22;13991;51.174;4.438;2023-07-02T13:51:06;22.10;95.40
26081;DHT22;13991;51.174;4.438;2023-07-02T13:53:33;22.50;96.20
26081;DHT22;13991;51.174;4.438;2023-07-02T13:55:59;22.80;94.40
26081;DHT22;13991;51.174;4.438;2023-07-02T13:58:25;23.10;94.70
26081;DHT22;13991;51.174;4.438;2023-07-02T14:00:54;23.10;93.90
26081;DHT22;13991;51.174;4.438;2023-07-02T14:03:20;22.60;93.40
26081;DHT22;13991;51.174;4.438;2023-07-02T14:05:45;22.40;95.20
26081;DHT22;13991;51.174;4.438;2023-07-02T14:08:11;22.30;95.00
26081;DHT22;13991;51.174;4.438;2023-07-02T14:10:37;22.10;95.00
26081;DHT22;13991;51.174;4.438;2023-07-02T14:13:02;22.10;95.10
26081;DHT22;13991;51.174;4.438;2023-07-02T14:15:28;22.40;96.00
26081;DHT22;13991;51.174;4.438;2023-07-02T14:17:54;23.00;95.50
26081;DHT22;13991;51.174;4.438;2023-07-02T14:20:20;23.40;94.20
26081;DHT22;13991;51.174;4.438;2023-07-02T14:22:46;23.00;93.40
26081;DHT22;13991;51.174;4.438;2023-07-02T14:25:11;22.90;94.10
26081;DHT22;13991;51.174;4.438;2023-07-02T14:27:37;22.90;95.10
26081;DHT22;13991;51.174;4.438;2023-07-02T14:30:04;23.20;94.10
26081;DHT22;13991;51.174;4.438;2023-07-02T14:32:35;23.40;94.10
26081;DHT22;13991;51.174;4.438;2023-07-02T14:35:02;23.50;93.60
26081;DHT22;13991;51.174;4.438;2023-07-02T14:37:28;23.30;93.80
26081;DHT22;13991;51.174;4.438;2023-07-02T14:39:54;23.00;93.20
26081;DHT22;13991;51.174;4.438;2023-07-02T14:42:19;22.80;93.80
26081;DHT22;13991;51.174;4.438;2023-07-02T14:44:45;22.60;94.40
26081;DHT22;13991;51.174;4.438;2023-07-02T14:47:11;22.20;93.90
26081;DHT22;13991;51.174;4.438;2023-07-02T14:49:37;21.90;94.60
26081;DHT22;13991;51.174;4.438;2023-07-02T14:52:03;22.00;96.50
26081;DHT22;13991;51.174;4.438;2023-07-02T14:54:29;22.20;95.80
26081;DHT22;13991;51.174;4.438;2023-07-02T14:56:55;22.40;94.40
26081;DHT22;13991;51.174;4.438;2023-07-02T14:59:20;22.70;94.40
26081;DHT22;13991;51.174;4.438;2023-07-02T15:01:46;23.00;94.70
26081;DHT22;13991;51.174;4.438;2023-07-02T15:04:12;23.00;93.30
26081;DHT22;13991;51.174;4.438;2023-07-02T15:06:37;22.80;93.30
26081;DHT22;13991;51.174;4.438;2023-07-02T15:09:03;22.70;94.10
26081;DHT22;13991;51.174;4.438;2023-07-02T15:11:30;22.40;93.00
26081;DHT22;13991;51.174;4.438;2023-07-02T15:13:56;22.40;94.10
26081;DHT22;13991;51.174;4.438;2023-07-02T15:16:23;22.70;95.10
26081;DHT22;13991;51.174;4.438;2023-07-02T15:18:49;22.80;94.00
26081;DHT22;13991;51.174;4.438;2023-07-02T15:21:15;22.60;93.80
26081;DHT22;13991;51.174;4.438;2023-07-02T15:23:42;22.80;94.30
26081;DHT22;13991;51.174;4.438;2023-07-02T15:26:08;22.40;93.90
26081;DHT22;13991;51.174;4.438;2023-07-02T15:28:34;22.30;94.40
26081;DHT22;13991;51.174;4.438;2023-07-02T15:31:11;22.50;95.10